createdAt,value
2018-05-26T00:01:36.501Z,94.40
2018-05-26T00:04:05.402Z,94.40
2018-05-26T00:06:33.469Z,94.30
2018-05-26T00:09:02.309Z,95.00
2018-05-26T00:11:30.300Z,94.70
2018-05-26T00:13:58.368Z,94.50
2018-05-26T00:16:26.427Z,95.20
2018-05-26T00:18:54.400Z,95.20
2018-05-26T00:21:22.468Z,95.00
2018-05-26T00:23:50.524Z,95.10
2018-05-26T00:26:18.530Z,95.40
2018-05-26T00:28:46.586Z,95.40
2018-05-26T00:31:14.615Z,95.50
2018-05-26T00:33:42.656Z,95.50
2018-05-26T00:36:11.459Z,95.70
2018-05-26T00:38:39.495Z,95.70
2018-05-26T00:41:07.640Z,95.50
2018-05-26T00:43:35.699Z,95.70
2018-05-26T00:46:04.601Z,95.90
2018-05-26T00:48:32.658Z,95.90
2018-05-26T00:51:00.680Z,96.10
2018-05-26T00:53:28.723Z,96.10
2018-05-26T00:55:56.912Z,95.60
2018-05-26T00:58:24.939Z,95.90
2018-05-26T01:00:52.986Z,95.90
2018-05-26T01:03:21.852Z,95.50
2018-05-26T01:05:50.058Z,95.50
2018-05-26T01:08:18.962Z,96.20
2018-05-26T01:10:46.939Z,96.20
2018-05-26T01:13:14.988Z,96.20
2018-05-26T01:15:43.873Z,96.10
2018-05-26T01:18:12.735Z,95.90
2018-05-26T01:20:40.943Z,95.90
2018-05-26T01:23:09.784Z,96.30
2018-05-26T01:25:37.912Z,96.20
2018-05-26T01:28:06.720Z,95.50
2018-05-26T01:30:34.785Z,95.50
2018-05-26T01:33:02.778Z,95.20
2018-05-26T01:35:30.868Z,95.10
2018-05-26T01:37:58.978Z,95.20
2018-05-26T01:40:27.747Z,95.90
2018-05-26T01:42:55.810Z,95.80
2018-05-26T01:45:23.880Z,95.70
2018-05-26T01:47:51.902Z,95.90
2018-05-26T01:50:20.058Z,95.90
2018-05-26T01:52:48.832Z,95.70
2018-05-26T01:55:16.936Z,95.70
2018-05-26T01:57:44.973Z,95.70
2018-05-26T02:00:12.983Z,95.40
2018-05-26T02:02:41.049Z,95.20
2018-05-26T02:05:09.899Z,95.50
2018-05-26T02:07:38.030Z,95.50
2018-05-26T02:10:06.874Z,95.70
2018-05-26T02:12:34.920Z,95.40
2018-05-26T02:15:02.973Z,95.40
2018-05-26T02:17:31.026Z,95.60
2018-05-26T02:19:59.064Z,96.00
2018-05-26T02:22:27.177Z,96.00
2018-05-26T02:24:55.245Z,96.10
2018-05-26T02:27:23.260Z,96.00
2018-05-26T02:29:51.334Z,96.20
2018-05-26T02:32:19.377Z,96.50
2018-05-26T02:34:47.401Z,96.80
2018-05-26T02:37:16.205Z,96.50
2018-05-26T02:39:45.059Z,96.50
2018-05-26T02:42:13.143Z,96.40
2018-05-26T02:44:41.353Z,96.30
2018-05-26T02:47:09.435Z,96.60
2018-05-26T02:49:38.157Z,96.20
2018-05-26T02:52:06.250Z,96.20
2018-05-26T02:54:34.281Z,96.10
2018-05-26T02:57:02.355Z,96.70
2018-05-26T02:59:30.448Z,96.60
2018-05-26T03:01:58.472Z,96.60
2018-05-26T03:04:32.467Z,96.50
2018-05-26T03:07:06.899Z,96.60
2018-05-26T03:09:40.746Z,96.60
2018-05-26T03:12:14.584Z,96.80
2018-05-26T03:14:47.234Z,96.90
2018-05-26T03:17:30.943Z,97.00
2018-05-26T03:19:58.977Z,97.30
2018-05-26T03:22:27.022Z,98.10
2018-05-26T03:24:55.083Z,98.70
2018-05-26T03:27:23.166Z,98.40
2018-05-26T03:29:51.209Z,98.20
2018-05-26T03:32:19.280Z,98.20
2018-05-26T03:34:47.348Z,97.90
2018-05-26T03:37:15.348Z,97.50
2018-05-26T03:39:43.412Z,97.40
2018-05-26T03:42:11.476Z,97.70
2018-05-26T03:44:39.524Z,97.70
2018-05-26T03:47:07.546Z,98.20
2018-05-26T03:49:35.660Z,98.40
2018-05-26T03:52:03.815Z,98.20
2018-05-26T03:54:44.555Z,98.50
2018-05-26T03:57:24.546Z,98.20
2018-05-26T04:00:14.097Z,98.90
2018-05-26T04:02:42.893Z,99.60
2018-05-26T04:05:10.988Z,99.30
2018-05-26T04:07:39.848Z,98.50
2018-05-26T04:10:08.110Z,98.50
2018-05-26T04:12:36.187Z,98.80
2018-05-26T04:15:04.331Z,98.90
2018-05-26T04:17:32.476Z,98.60
2018-05-26T04:20:01.288Z,98.30
2018-05-26T04:22:29.301Z,98.30
2018-05-26T04:24:57.411Z,98.50
2018-05-26T04:27:25.416Z,98.60
2018-05-26T04:29:53.478Z,98.80
2018-05-26T04:32:21.535Z,98.80
2018-05-26T04:34:49.528Z,98.40
2018-05-26T04:37:17.615Z,97.90
2018-05-26T04:39:45.778Z,97.80
2018-05-26T04:42:13.801Z,98.10
2018-05-26T04:44:42.601Z,97.40
2018-05-26T04:47:11.461Z,97.50
2018-05-26T04:49:39.492Z,97.50
2018-05-26T04:52:07.594Z,98.50
2018-05-26T04:54:35.610Z,98.40
2018-05-26T04:57:03.661Z,98.40
2018-05-26T04:59:32.455Z,98.90
2018-05-26T05:02:01.339Z,99.00
2018-05-26T05:04:30.138Z,99.00
2018-05-26T05:06:58.966Z,99.20
2018-05-26T05:09:26.999Z,99.10
2018-05-26T05:11:55.827Z,99.00
2018-05-26T05:14:23.926Z,99.00
2018-05-26T05:16:52.032Z,98.00
2018-05-26T05:19:20.817Z,97.80
2018-05-26T05:21:49.645Z,97.70
2018-05-26T05:24:18.492Z,97.20
2018-05-26T05:26:47.389Z,97.40
2018-05-26T05:29:16.245Z,97.70
2018-05-26T05:31:44.355Z,97.70
2018-05-26T05:34:13.202Z,97.70
2018-05-26T05:36:41.204Z,97.70
2018-05-26T05:39:10.024Z,97.90
2018-05-26T05:41:38.119Z,97.80
2018-05-26T05:44:06.191Z,97.50
2018-05-26T05:46:34.200Z,97.40
2018-05-26T05:49:02.241Z,97.70
2018-05-26T05:51:30.284Z,97.90
2018-05-26T05:53:58.351Z,97.90
2018-05-26T05:56:26.376Z,97.60
2018-05-26T05:58:54.422Z,97.30
2018-05-26T06:01:22.487Z,97.90
2018-05-26T06:03:50.596Z,98.20
2018-05-26T06:06:18.652Z,97.70
2018-05-26T06:08:46.673Z,98.30
2018-05-26T06:11:15.679Z,95.30
2018-05-26T06:13:43.827Z,95.20
2018-05-26T06:16:12.584Z,95.20
2018-05-26T06:18:40.683Z,95.20
2018-05-26T06:21:09.661Z,95.60
2018-05-26T06:23:37.829Z,95.20
2018-05-26T06:26:05.958Z,95.60
2018-05-26T06:28:34.887Z,95.30
2018-05-26T06:31:02.928Z,95.30
2018-05-26T06:33:31.025Z,95.30
2018-05-26T06:35:59.134Z,94.60
2018-05-26T06:38:28.160Z,94.40
2018-05-26T06:40:56.199Z,94.00
2018-05-26T06:43:24.355Z,93.80
2018-05-26T06:45:52.602Z,93.50
2018-05-26T06:48:20.712Z,94.40
2018-05-26T06:50:49.497Z,93.50
2018-05-26T06:53:18.361Z,93.80
2018-05-26T06:55:46.498Z,93.70
2018-05-26T06:58:15.378Z,93.40
2018-05-26T07:00:43.582Z,93.30
2018-05-26T07:03:12.863Z,94.40
2018-05-26T07:05:41.740Z,94.80
2018-05-26T07:08:09.820Z,94.70
2018-05-26T07:10:37.994Z,93.20
2018-05-26T07:13:06.197Z,93.30
2018-05-26T07:15:36.011Z,92.70
2018-05-26T07:18:04.136Z,92.70
2018-05-26T07:20:32.349Z,93.30
2018-05-26T07:23:01.170Z,92.70
2018-05-26T07:25:29.302Z,92.70
2018-05-26T07:27:58.163Z,92.20
2018-05-26T07:30:26.243Z,92.00
2018-05-26T07:32:54.388Z,92.60
2018-05-26T07:35:22.373Z,92.30
2018-05-26T07:37:50.614Z,93.20
2018-05-26T07:40:18.748Z,92.60
2018-05-26T07:42:46.861Z,92.60
2018-05-26T07:45:15.202Z,92.50
2018-05-26T07:47:43.882Z,92.20
2018-05-26T07:50:12.005Z,92.60
2018-05-26T07:52:40.103Z,93.40
2018-05-26T07:55:11.602Z,92.90
2018-05-26T07:57:40.531Z,92.50
2018-05-26T08:00:08.621Z,92.50
2018-05-26T08:02:38.848Z,92.00
2018-05-26T08:05:07.018Z,92.40
2018-05-26T08:07:35.259Z,92.10
2018-05-26T08:10:03.468Z,91.70
2018-05-26T08:12:31.732Z,92.30
2018-05-26T08:14:59.760Z,91.80
2018-05-26T08:17:28.568Z,91.90
2018-05-26T08:19:56.699Z,91.90
2018-05-26T08:22:24.713Z,92.20
2018-05-26T08:24:52.738Z,91.80
2018-05-26T08:27:22.136Z,92.00
2018-05-26T08:29:51.652Z,91.50
2018-05-26T08:32:19.743Z,92.60
2018-05-26T08:34:48.608Z,90.60
2018-05-26T08:37:17.419Z,91.40
2018-05-26T08:39:46.211Z,91.00
2018-05-26T08:42:15.097Z,91.00
2018-05-26T08:44:43.940Z,91.80
2018-05-26T08:47:11.969Z,91.80
2018-05-26T08:49:43.232Z,91.10
2018-05-26T08:52:11.354Z,91.20
2018-05-26T08:54:39.437Z,90.60
2018-05-26T08:57:07.463Z,90.90
2018-05-26T08:59:35.463Z,90.50
2018-05-26T09:02:03.553Z,90.80
2018-05-26T09:04:31.715Z,90.70
2018-05-26T09:06:59.804Z,88.90
2018-05-26T09:09:27.803Z,90.50
2018-05-26T09:11:56.647Z,90.50
2018-05-26T09:14:24.731Z,90.60
2018-05-26T09:16:52.845Z,90.30
2018-05-26T09:19:20.901Z,90.60
2018-05-26T09:21:49.731Z,90.40
2018-05-26T09:24:18.267Z,90.40
2018-05-26T09:26:46.306Z,90.00
2018-05-26T09:29:14.297Z,90.10
2018-05-26T09:31:42.825Z,89.20
2018-05-26T09:34:10.956Z,89.60
2018-05-26T09:36:39.367Z,89.20
2018-05-26T09:39:07.917Z,89.70
2018-05-26T09:41:37.654Z,88.40
2018-05-26T09:44:05.762Z,88.40
2018-05-26T09:46:34.249Z,88.20
2018-05-26T09:49:02.350Z,90.20
2018-05-26T09:51:30.445Z,89.10
2018-05-26T09:53:59.363Z,89.80
2018-05-26T09:56:27.896Z,88.70
2018-05-26T09:58:56.728Z,87.70
2018-05-26T10:01:25.883Z,88.40
2018-05-26T10:03:54.426Z,89.00
2018-05-26T10:06:22.489Z,88.30
2018-05-26T10:08:50.879Z,90.60
2018-05-26T10:11:20.049Z,90.70
2018-05-26T10:13:48.720Z,87.70
2018-05-26T10:16:17.328Z,84.50
2018-05-26T10:18:45.451Z,87.40
2018-05-26T10:21:13.807Z,85.30
2018-05-26T10:23:42.892Z,85.30
2018-05-26T10:26:11.139Z,84.50
2018-05-26T10:28:40.159Z,87.40
2018-05-26T10:31:08.548Z,89.30
2018-05-26T10:33:37.242Z,87.10
2018-05-26T10:36:05.450Z,85.20
2018-05-26T10:38:33.559Z,83.10
2018-05-26T10:41:01.675Z,82.30
2018-05-26T10:43:29.723Z,81.50
2018-05-26T10:46:09.567Z,90.00
2018-05-26T10:48:37.575Z,83.70
2018-05-26T10:51:05.613Z,82.90
2018-05-26T10:53:33.737Z,85.00
2018-05-26T10:56:02.687Z,87.60
2018-05-26T10:58:30.740Z,87.50
2018-05-26T11:00:58.877Z,83.30
2018-05-26T11:03:27.720Z,79.90
2018-05-26T11:05:55.782Z,79.90
2018-05-26T11:08:24.623Z,84.80
2018-05-26T11:10:53.474Z,83.80
2018-05-26T11:13:21.558Z,84.00
2018-05-26T11:15:49.664Z,82.00
2018-05-26T11:18:18.478Z,82.00
2018-05-26T11:20:46.539Z,82.10
2018-05-26T11:23:15.493Z,79.60
2018-05-26T11:25:43.596Z,79.40
2018-05-26T11:28:11.706Z,77.50
2018-05-26T11:30:39.780Z,78.90
2018-05-26T11:33:07.805Z,81.70
2018-05-26T11:35:36.649Z,86.90
2018-05-26T11:38:04.801Z,87.10
2018-05-26T11:40:32.858Z,79.20
2018-05-26T11:43:00.941Z,78.60
2018-05-26T11:45:29.067Z,81.10
2018-05-26T11:47:57.970Z,81.90
2018-05-26T11:50:25.983Z,79.00
2018-05-26T11:52:54.011Z,80.10
2018-05-26T11:55:22.012Z,80.70
2018-05-26T11:57:50.034Z,78.30
2018-05-26T12:00:18.181Z,81.60
2018-05-26T12:02:46.206Z,80.60
2018-05-26T12:05:14.960Z,78.10
2018-05-26T12:07:43.836Z,79.50
2018-05-26T12:10:17.477Z,79.40
2018-05-26T12:12:45.788Z,76.90
2018-05-26T12:15:13.935Z,78.50
2018-05-26T12:17:42.777Z,79.40
2018-05-26T12:20:12.134Z,83.80
2018-05-26T12:22:41.395Z,75.00
2018-05-26T12:25:09.402Z,74.90
2018-05-26T12:27:38.355Z,74.70
2018-05-26T12:30:07.231Z,74.70
2018-05-26T12:32:35.466Z,74.00
2018-05-26T12:35:04.357Z,77.00
2018-05-26T12:37:33.216Z,79.20
2018-05-26T12:40:01.451Z,79.20
2018-05-26T12:42:29.579Z,76.90
2018-05-26T12:44:58.840Z,74.10
2018-05-26T12:47:26.890Z,73.90
2018-05-26T12:49:55.005Z,74.40
2018-05-26T12:52:23.019Z,72.80
2018-05-26T12:54:51.915Z,74.30
2018-05-26T12:57:20.783Z,76.60
2018-05-26T12:59:49.032Z,76.50
2018-05-26T13:02:17.853Z,75.60
2018-05-26T13:04:46.980Z,73.50
2018-05-26T13:07:15.540Z,73.40
2018-05-26T13:09:45.100Z,74.50
2018-05-26T13:12:13.343Z,74.50
2018-05-26T13:14:41.784Z,73.10
2018-05-26T13:17:10.749Z,70.60
2018-05-26T13:19:39.367Z,70.60
2018-05-26T13:22:08.370Z,66.70
2018-05-26T13:24:37.155Z,68.60
2018-05-26T13:27:05.984Z,70.60
2018-05-26T13:29:34.837Z,71.40
2018-05-26T13:32:03.635Z,73.90
2018-05-26T13:34:32.497Z,74.80
2018-05-26T13:37:00.610Z,74.80
2018-05-26T13:39:29.354Z,74.00
2018-05-26T13:41:58.497Z,74.40
2018-05-26T13:44:27.089Z,73.90
2018-05-26T13:46:55.209Z,73.80
2018-05-26T13:49:23.239Z,75.80
2018-05-26T13:51:51.259Z,77.20
2018-05-26T13:54:19.434Z,79.40
2018-05-26T13:56:47.531Z,82.70
2018-05-26T13:59:16.287Z,78.00
2018-05-26T14:01:44.371Z,77.90
2018-05-26T14:04:12.454Z,79.70
2018-05-26T14:06:41.203Z,79.50
2018-05-26T14:09:09.313Z,79.50
2018-05-26T14:11:38.124Z,78.20
2018-05-26T14:14:06.176Z,78.10
2018-05-26T14:16:35.065Z,76.90
2018-05-26T14:19:03.881Z,76.60
2018-05-26T14:21:32.002Z,75.70
2018-05-26T14:24:00.020Z,69.30
2018-05-26T14:26:28.094Z,67.10
2018-05-26T14:28:56.162Z,72.50
2018-05-26T14:31:24.251Z,66.00
2018-05-26T14:33:52.435Z,63.60
2018-05-26T14:36:20.578Z,66.60
2018-05-26T14:38:48.669Z,65.90
2018-05-26T14:41:16.805Z,68.50
2018-05-26T14:43:44.809Z,66.20
2018-05-26T14:46:12.810Z,67.50
2018-05-26T14:48:40.826Z,68.40
2018-05-26T14:51:09.641Z,70.80
2018-05-26T14:53:37.655Z,70.70
2018-05-26T14:56:05.775Z,74.10
2018-05-26T14:58:33.913Z,76.30
2018-05-26T15:01:02.115Z,77.20
2018-05-26T15:03:31.263Z,79.10
2018-05-26T15:05:59.737Z,79.00
2018-05-26T15:08:27.848Z,79.40
2018-05-26T15:10:55.983Z,79.70
2018-05-26T15:13:24.113Z,79.40
2018-05-26T15:15:52.233Z,79.70
2018-05-26T15:18:20.716Z,78.60
2018-05-26T15:20:49.150Z,79.20
2018-05-26T15:23:17.188Z,79.70
2018-05-26T15:25:46.029Z,81.00
2018-05-26T15:28:14.092Z,80.90
2018-05-26T15:30:42.205Z,80.10
2018-05-26T15:33:10.746Z,81.90
2018-05-26T15:35:39.100Z,83.80
2018-05-26T15:38:08.052Z,83.00
2018-05-26T15:40:36.082Z,83.00
2018-05-26T15:43:04.945Z,83.30
2018-05-26T15:45:32.992Z,83.20
2018-05-26T15:48:01.428Z,84.20
2018-05-26T15:50:30.617Z,83.00
2018-05-26T15:53:00.061Z,85.30
2018-05-26T15:55:28.261Z,85.30
2018-05-26T15:57:57.132Z,86.50
2018-05-26T16:00:25.255Z,86.50
2018-05-26T16:02:54.110Z,80.80
2018-05-26T16:05:22.092Z,80.70
2018-05-26T16:07:52.208Z,78.30
2018-05-26T16:10:20.828Z,74.60
2018-05-26T16:12:50.232Z,75.10
2018-05-26T16:15:19.568Z,75.10
2018-05-26T16:17:47.839Z,75.10
2018-05-26T16:20:15.921Z,74.40
2018-05-26T16:22:44.043Z,74.50
2018-05-26T16:25:12.804Z,72.90
2018-05-26T16:27:40.850Z,72.80
2018-05-26T16:30:08.920Z,74.00
2018-05-26T16:32:37.011Z,73.60
2018-05-26T16:35:05.406Z,71.40
2018-05-26T16:37:33.869Z,71.50
2018-05-26T16:40:04.559Z,70.80
2018-05-26T16:42:32.549Z,71.30
2018-05-26T16:45:00.586Z,71.00
2018-05-26T16:47:29.417Z,72.30
2018-05-26T16:49:57.417Z,72.20
2018-05-26T16:52:25.503Z,70.10
2018-05-26T16:54:53.610Z,69.70
2018-05-26T16:57:21.727Z,69.70
2018-05-26T16:59:49.821Z,68.60
2018-05-26T17:02:17.940Z,69.50
2018-05-26T17:04:46.062Z,70.60
2018-05-26T17:07:14.124Z,71.90
2018-05-26T17:09:42.189Z,72.80
2018-05-26T17:12:10.188Z,71.00
2018-05-26T17:14:39.077Z,71.20
2018-05-26T17:17:07.974Z,72.30
2018-05-26T17:19:36.835Z,73.20
2018-05-26T17:22:04.797Z,73.10
2018-05-26T17:24:32.868Z,73.60
2018-05-26T17:27:00.898Z,75.50
2018-05-26T17:29:28.972Z,78.80
2018-05-26T17:31:57.006Z,79.50
2018-05-26T17:34:25.025Z,80.40
2018-05-26T17:36:53.019Z,80.50
2018-05-26T17:39:21.045Z,81.30
2018-05-26T17:41:49.860Z,81.30
2018-05-26T17:44:17.987Z,81.30
2018-05-26T17:46:46.083Z,82.50
2018-05-26T17:49:14.884Z,83.50
2018-05-26T17:51:42.950Z,83.40
2018-05-26T17:54:11.115Z,83.50
2018-05-26T17:56:39.909Z,84.70
2018-05-26T17:59:08.709Z,85.20
2018-05-26T18:01:36.773Z,85.10
2018-05-26T18:04:05.548Z,86.10
2018-05-26T18:06:34.363Z,86.80
2018-05-26T18:09:02.447Z,86.70
2018-05-26T18:11:30.441Z,86.20
2018-05-26T18:13:58.555Z,85.60
2018-05-26T18:16:27.385Z,87.10
2018-05-26T18:18:55.429Z,87.00
2018-05-26T18:21:23.426Z,87.80
2018-05-26T18:23:51.467Z,88.30
2018-05-26T18:26:20.319Z,87.70
2018-05-26T18:28:48.328Z,87.60
2018-05-26T18:31:17.108Z,88.00
2018-05-26T18:33:45.857Z,87.30
2018-05-26T18:36:13.914Z,87.20
2018-05-26T18:38:42.037Z,88.40
2018-05-26T18:41:10.793Z,88.30
2018-05-26T18:43:38.915Z,88.20
2018-05-26T18:46:06.959Z,88.20
2018-05-26T18:48:34.998Z,88.70
2018-05-26T18:51:03.060Z,89.90
2018-05-26T18:53:31.158Z,90.10
2018-05-26T18:55:59.264Z,90.00
2018-05-26T18:58:28.078Z,88.00
2018-05-26T19:00:56.109Z,87.90
2018-05-26T19:03:24.109Z,86.80
2018-05-26T19:05:52.116Z,87.00
2018-05-26T19:08:20.246Z,89.00
2018-05-26T19:10:49.063Z,88.20
2018-05-26T19:13:17.190Z,88.30
2018-05-26T19:15:46.101Z,90.40
2018-05-26T19:18:15.408Z,90.40
2018-05-26T19:20:43.509Z,90.80
2018-05-26T19:23:11.664Z,91.50
2018-05-26T19:25:39.892Z,91.40
2018-05-26T19:28:08.105Z,91.90
2018-05-26T19:30:36.206Z,92.60
2018-05-26T19:33:04.283Z,92.70
2018-05-26T19:35:32.269Z,92.60
2018-05-26T19:38:00.342Z,92.20
2018-05-26T19:40:28.829Z,92.60
2018-05-26T19:42:57.062Z,92.50
2018-05-26T19:45:25.157Z,92.60
2018-05-26T19:47:54.436Z,92.70
2018-05-26T19:50:22.562Z,92.70
2018-05-26T19:52:50.602Z,92.80
2018-05-26T19:55:18.589Z,92.40
2018-05-26T19:57:47.323Z,93.10
2018-05-26T20:00:16.188Z,92.80
2018-05-26T20:02:44.282Z,93.20
2018-05-26T20:05:12.409Z,93.10
2018-05-26T20:07:41.067Z,92.40
2018-05-26T20:10:09.178Z,92.50
2018-05-26T20:12:37.286Z,93.00
2018-05-26T20:15:06.119Z,93.10
2018-05-26T20:17:34.223Z,93.10
2018-05-26T20:20:02.307Z,93.20
2018-05-26T20:22:31.191Z,93.30
2018-05-26T20:24:59.995Z,93.50
2018-05-26T20:27:28.805Z,93.30
2018-05-26T20:29:56.873Z,93.30
2018-05-26T20:32:24.968Z,93.80
2018-05-26T20:34:53.039Z,93.70
2018-05-26T20:37:21.096Z,93.60
2018-05-26T20:39:49.141Z,93.70
2018-05-26T20:42:17.920Z,94.10
2018-05-26T20:44:46.709Z,94.10
2018-05-26T20:47:15.504Z,93.60
2018-05-26T20:49:44.367Z,94.10
2018-05-26T20:52:12.441Z,93.40
2018-05-26T20:54:40.527Z,93.90
2018-05-26T20:57:08.624Z,93.90
2018-05-26T20:59:37.443Z,94.10
2018-05-26T21:02:05.538Z,94.10
2018-05-26T21:04:33.576Z,94.30
2018-05-26T21:07:01.633Z,94.40
2018-05-26T21:09:29.680Z,94.30
2018-05-26T21:11:57.805Z,94.40
2018-05-26T21:14:25.928Z,94.40
2018-05-26T21:16:53.959Z,94.20
2018-05-26T21:19:21.991Z,94.20
2018-05-26T21:21:50.825Z,94.20
2018-05-26T21:24:18.821Z,94.20
2018-05-26T21:26:46.955Z,94.50
2018-05-26T21:29:14.972Z,94.50
2018-05-26T21:31:42.993Z,94.30
2018-05-26T21:34:11.060Z,94.30
2018-05-26T21:36:39.178Z,94.30
2018-05-26T21:39:07.227Z,94.50
2018-05-26T21:41:35.247Z,94.70
2018-05-26T21:44:04.075Z,94.90
2018-05-26T21:46:32.214Z,94.90
2018-05-26T21:49:01.062Z,94.80
2018-05-26T21:51:29.111Z,94.70
2018-05-26T21:53:57.167Z,94.60
2018-05-26T21:56:25.229Z,94.50
2018-05-26T21:58:53.323Z,94.30
2018-05-26T22:01:21.417Z,94.30
2018-05-26T22:03:49.467Z,94.20
2018-05-26T22:06:17.582Z,94.20
2018-05-26T22:08:46.471Z,94.70
2018-05-26T22:11:14.537Z,94.30
2018-05-26T22:13:42.602Z,94.40
2018-05-26T22:16:10.666Z,94.10
2018-05-26T22:18:38.715Z,94.50
2018-05-26T22:21:06.815Z,94.60
2018-05-26T22:23:34.895Z,94.30
2018-05-26T22:26:03.008Z,94.10
2018-05-26T22:28:31.119Z,94.10
2018-05-26T22:30:59.207Z,94.20
2018-05-26T22:33:27.204Z,94.90
2018-05-26T22:35:56.030Z,95.40
2018-05-26T22:38:24.891Z,95.40
2018-05-26T22:40:53.714Z,95.30
2018-05-26T22:43:21.744Z,95.30
2018-05-26T22:45:50.549Z,95.20
2018-05-26T22:48:19.446Z,95.70
2018-05-26T22:50:47.508Z,95.70
2018-05-26T22:53:16.264Z,95.40
2018-05-26T22:55:44.335Z,95.40
2018-05-26T22:58:12.397Z,95.30
2018-05-26T23:00:40.457Z,95.40
2018-05-26T23:03:08.455Z,95.60
2018-05-26T23:05:36.492Z,96.00
2018-05-26T23:08:04.571Z,96.00
2018-05-26T23:10:32.663Z,95.90
2018-05-26T23:13:00.712Z,96.00
2018-05-26T23:15:28.689Z,96.10
2018-05-26T23:17:56.668Z,96.30
2018-05-26T23:20:24.769Z,96.40
2018-05-26T23:22:53.614Z,96.50
2018-05-26T23:25:21.634Z,96.60
2018-05-26T23:27:50.424Z,97.00
2018-05-26T23:30:19.203Z,96.90
2018-05-26T23:32:47.255Z,96.80
2018-05-26T23:35:15.334Z,97.80
2018-05-26T23:37:43.341Z,98.30
2018-05-26T23:40:12.188Z,98.30
2018-05-26T23:42:40.282Z,98.30
2018-05-26T23:45:08.324Z,98.20
2018-05-26T23:47:36.463Z,98.60
2018-05-26T23:50:04.627Z,98.20
2018-05-26T23:52:32.703Z,98.20
2018-05-26T23:55:00.693Z,97.60
2018-05-26T23:57:28.747Z,97.70
2018-05-26T23:59:56.772Z,97.70
